Time;durP1;ratioP1;P1;durP2;ratioP2;P2;SDS_P1;SDS_P2;PMS_P1;PMS_P2;Temp;Humidity;BMP_temperature;BMP_pressure;BME280_temperature;BME280_humidity;BME280_pressure;Samples;Min_cycle;Max_cycle;Signal;HPM_P1;HPM_P2
2023/10/12 00:00:26;;;;;;;3.55;2.25;;;;;;;-141.23;100.00;62281.09;5035274;28;20040;-69
2023/10/12 00:02:52;;;;;;;6.70;2.38;;;;;;;-141.23;100.00;62281.09;5002232;28;20052;-69
2023/10/12 00:05:19;;;;;;;5.38;2.25;;;;;;;-141.23;100.00;62281.09;5001334;28;20509;-70
2023/10/12 00:07:47;;;;;;;3.92;2.22;;;;;;;-141.23;100.00;62281.09;5017936;28;20080;-68
2023/10/12 00:12:45;;;;;;;5.35;2.40;;;;;;;-141.23;100.00;62281.09;5002494;28;20136;-70
2023/10/12 00:17:55;;;;;;;6.38;2.00;;;;;;;-141.23;100.00;62281.09;5002694;28;20103;-69
2023/10/12 00:20:33;;;;;;;3.70;2.30;;;;;;;-141.23;100.00;62281.09;5033921;28;20072;-69
2023/10/12 00:23:09;;;;;;;4.07;2.30;;;;;;;-141.23;100.00;62281.09;5018981;28;20045;-69
2023/10/12 00:25:45;;;;;;;5.22;2.30;;;;;;;-141.23;100.00;62281.09;4995437;28;20128;-69
2023/10/12 00:28:20;;;;;;;5.07;2.20;;;;;;;-141.23;100.00;62281.09;5010728;28;20131;-69
2023/10/12 00:30:47;;;;;;;3.28;1.85;;;;;;;-141.23;100.00;62281.09;4978168;28;20054;-69
2023/10/12 00:33:14;;;;;;;4.70;2.20;;;;;;;-141.23;100.00;62281.09;4981459;28;20049;-69
2023/10/12 00:35:40;;;;;;;4.57;2.10;;;;;;;-141.23;100.00;62281.09;4997715;28;20050;-70
2023/10/12 00:38:23;;;;;;;5.82;2.35;;;;;;;-141.23;100.00;62281.09;4980963;28;20042;-70
2023/10/12 00:40:50;;;;;;;7.00;2.20;;;;;;;-141.23;100.00;62281.09;5015730;28;20638;-71
2023/10/12 00:43:16;;;;;;;4.68;2.40;;;;;;;-141.23;100.00;62281.09;5013637;28;20096;-70
2023/10/12 00:45:42;;;;;;;4.03;2.00;;;;;;;-141.23;100.00;62281.09;5013688;28;20049;-70
2023/10/12 00:48:15;;;;;;;11.50;2.40;;;;;;;-141.23;100.00;62281.09;5030434;28;20049;-70
2023/10/12 00:50:44;;;;;;;4.13;2.42;;;;;;;-141.23;100.00;62281.09;4998442;28;20050;-71
2023/10/12 00:53:15;;;;;;;6.28;2.47;;;;;;;-141.23;100.00;62281.09;4998180;28;20037;-70
2023/10/12 00:55:45;;;;;;;5.25;2.35;;;;;;;-141.23;100.00;62281.09;5000510;28;21076;-75
2023/10/12 00:58:14;;;;;;;4.18;2.60;;;;;;;-141.23;100.00;62281.09;5034637;28;20041;-71
2023/10/12 01:00:45;;;;;;;4.43;2.58;;;;;;;-141.23;100.00;62281.09;5067996;28;20053;-76
2023/10/12 01:03:35;;;;;;;4.15;2.38;;;;;;;-141.23;100.00;62281.09;5035234;28;20064;-82
2023/10/12 01:06:12;;;;;;;5.90;2.83;;;;;;;-141.23;100.00;62281.09;5020830;28;20475;-68
2023/10/12 01:08:43;;;;;;;4.43;2.55;;;;;;;-141.23;100.00;62281.09;5051973;28;20041;-69
2023/10/12 01:11:19;;;;;;;4.70;2.90;;;;;;;-141.23;100.00;62281.09;5018140;28;20045;-76
2023/10/12 01:13:49;;;;;;;8.70;3.47;;;;;;;-141.23;100.00;62281.09;5018402;28;20111;-68
2023/10/12 01:16:23;;;;;;;;;;;;;;;-141.23;100.00;62281.09;5034484;28;20076;-69
2023/10/12 01:18:59;;;;;;;9.27;3.38;;;;;;;-141.23;100.00;62281.09;5018404;28;19921;-69
2023/10/12 01:21:28;;;;;;;9.23;3.75;;;;;;;-141.23;100.00;62281.09;5018911;28;20044;-69
2023/10/12 01:24:02;;;;;;;5.05;3.28;;;;;;;-141.23;100.00;62281.09;5002252;28;20044;-69
2023/10/12 01:26:31;;;;;;;7.60;3.10;;;;;;;-141.23;100.00;62281.09;5018367;28;20088;-69
2023/10/12 01:29:00;;;;;;;6.15;3.58;;;;;;;-141.23;100.00;62281.09;5050413;28;20069;-69
2023/10/12 01:31:30;;;;;;;8.57;3.45;;;;;;;-141.23;100.00;62281.09;5034506;28;20045;-69
2023/10/12 01:33:59;;;;;;;5.22;2.90;;;;;;;-141.23;100.00;62281.09;5051302;28;20055;-69
2023/10/12 01:36:30;;;;;;;4.68;2.70;;;;;;;-141.23;100.00;62281.09;5018306;28;20375;-69
2023/10/12 01:39:11;;;;;;;5.45;2.72;;;;;;;-141.23;100.00;62281.09;5030025;28;20045;-71
2023/10/12 01:41:40;;;;;;;7.10;2.93;;;;;;;-141.23;100.00;62281.09;4999191;28;20049;-69
2023/10/12 01:44:11;;;;;;;9.20;2.87;;;;;;;-141.23;100.00;62281.09;4997763;28;20150;-70
2023/10/12 01:46:39;;;;;;;9.05;2.85;;;;;;;-141.23;100.00;62281.09;4981514;28;20391;-71
2023/10/12 01:49:06;;;;;;;7.70;2.72;;;;;;;-141.23;100.00;62281.09;4982781;28;20076;-70
2023/10/12 01:51:33;;;;;;;6.50;2.85;;;;;;;-141.23;100.00;62281.09;5001628;28;20041;-70
2023/10/12 01:54:05;;;;;;;8.02;3.03;;;;;;;-141.23;100.00;62281.09;5001920;28;20112;-70
2023/10/12 01:56:34;;;;;;;7.05;3.30;;;;;;;-141.23;100.00;62281.09;4970053;28;20133;-70
2023/10/12 01:59:05;;;;;;;9.88;2.88;;;;;;;-141.23;100.00;62281.09;5002045;28;20053;-70
2023/10/12 02:01:33;;;;;;;9.70;2.80;;;;;;;-141.23;100.00;62281.09;5002160;28;20041;-70
2023/10/12 02:04:03;;;;;;;7.50;2.80;;;;;;;-141.23;100.00;62281.09;4985038;28;20559;-71
2023/10/12 02:06:30;;;;;;;8.38;3.03;;;;;;;-141.23;100.00;62281.09;5001650;28;20131;-70
2023/10/12 02:09:08;;;;;;;9.60;3.05;;;;;;;-141.23;100.00;62281.09;4971721;28;20464;-70
2023/10/12 02:11:43;;;;;;;5.90;2.58;;;;;;;-141.23;100.00;62281.09;5039079;28;20114;-71
2023/10/12 02:14:21;;;;;;;4.85;2.47;;;;;;;-141.23;100.00;62281.09;5022402;28;20051;-71
2023/10/12 02:16:53;;;;;;;5.65;2.83;;;;;;;-141.23;100.00;62281.09;5022702;28;20075;-70
2023/10/12 02:19:31;;;;;;;3.83;2.45;;;;;;;-141.23;100.00;62281.09;5037647;28;20151;-70
2023/10/12 02:22:28;;;;;;;6.43;2.97;;;;;;;-141.23;100.00;62281.09;5028674;28;20059;-71
2023/10/12 02:25:17;;;;;;;10.10;3.10;;;;;;;-141.23;100.00;62281.09;5039666;28;20383;-70
2023/10/12 02:27:54;;;;;;;6.28;2.90;;;;;;;-141.23;100.00;62281.09;5054869;28;20470;-71
2023/10/12 02:30:27;;;;;;;6.78;2.63;;;;;;;-141.23;100.00;62281.09;5022531;28;20044;-70
2023/10/12 02:33:00;;;;;;;5.80;3.10;;;;;;;-141.23;100.00;62281.09;5054006;28;20072;-71
2023/10/12 02:35:36;;;;;;;8.07;2.90;;;;;;;-141.23;100.00;62281.09;5037868;28;20049;-71
2023/10/12 02:38:14;;;;;;;7.05;3.03;;;;;;;-141.23;100.00;62281.09;5005208;28;20098;-70
2023/10/12 02:40:42;;;;;;;6.68;3.08;;;;;;;-141.23;100.00;62281.09;5037968;28;20051;-70
2023/10/12 02:43:10;;;;;;;6.32;2.97;;;;;;;-141.23;100.00;62281.09;5036842;28;20056;-71
2023/10/12 02:45:41;;;;;;;6.32;3.08;;;;;;;-141.23;100.00;62281.09;5020683;28;20212;-70
2023/10/12 02:48:22;;;;;;;5.30;2.72;;;;;;;-141.23;100.00;62281.09;5021292;28;20048;-71
2023/10/12 02:51:07;;;;;;;4.88;2.83;;;;;;;-141.23;100.00;62281.09;5022270;28;20049;-71
2023/10/12 02:53:34;;;;;;;6.68;2.83;;;;;;;-141.23;100.00;62281.09;5039135;28;20087;-71
2023/10/12 02:56:04;;;;;;;6.53;2.97;;;;;;;-141.23;100.00;62281.09;5020054;28;20135;-73
2023/10/12 02:58:32;;;;;;;6.17;3.10;;;;;;;-141.23;100.00;62281.09;5019672;28;20085;-71
2023/10/12 03:01:12;;;;;;;7.07;3.03;;;;;;;-141.23;100.00;62281.09;4986328;28;20709;-73
2023/10/12 03:03:48;;;;;;;6.25;2.90;;;;;;;-141.23;100.00;62281.09;5020368;28;20053;-71
2023/10/12 03:06:23;;;;;;;6.90;3.00;;;;;;;-141.23;100.00;62281.09;5003655;28;20044;-71
2023/10/12 03:11:29;;;;;;;6.20;3.05;;;;;;;-141.23;100.00;62281.09;5020090;28;20057;-72
2023/10/12 03:14:13;;;;;;;6.25;2.78;;;;;;;-141.23;100.00;62281.09;5018954;28;20060;-72
2023/10/12 03:16:43;;;;;;;8.82;3.22;;;;;;;-141.23;100.00;62281.09;5004681;28;20427;-72
2023/10/12 03:19:35;;;;;;;7.80;2.78;;;;;;;-141.23;100.00;62281.09;4979918;28;20141;-71
2023/10/12 03:22:17;;;;;;;7.47;3.13;;;;;;;-141.23;100.00;62281.09;4979302;28;20092;-72
2023/10/12 03:24:50;;;;;;;6.63;3.03;;;;;;;-141.23;100.00;62281.09;5011840;28;20104;-68
2023/10/12 03:27:19;;;;;;;7.35;3.13;;;;;;;-141.23;100.00;62281.09;4995764;28;20046;-74
2023/10/12 03:29:55;;;;;;;8.48;3.05;;;;;;;-141.23;100.00;62281.09;4979603;28;20500;-74
2023/10/12 03:32:23;;;;;;;6.03;2.75;;;;;;;-141.23;100.00;62281.09;4996814;28;20120;-76
2023/10/12 03:37:20;;;;;;;11.73;3.65;;;;;;;-141.23;100.00;62281.09;4979614;28;20144;-70
2023/10/12 03:39:59;;;;;;;9.50;4.00;;;;;;;-141.23;100.00;62281.09;4995229;28;20053;-75
2023/10/12 03:44:54;;;;;;;11.57;4.43;;;;;;;-141.23;100.00;62281.09;4962012;28;20050;-73
2023/10/12 03:52:27;;;;;;;11.60;3.80;;;;;;;-141.23;100.00;62281.09;5068744;28;20132;-78
2023/10/12 04:05:21;;;;;;;10.60;3.95;;;;;;;-141.23;100.00;62281.09;5035420;28;20041;-75
2023/10/12 04:13:54;;;;;;;9.25;4.28;;;;;;;-141.23;100.00;62281.09;5035206;28;20502;-75
2023/10/12 04:18:41;;;;;;;6.32;3.60;;;;;;;-141.23;100.00;62281.09;5035300;28;20041;-76
2023/10/12 04:21:15;;;;;;;9.63;3.70;;;;;;;-141.23;100.00;62281.09;5018936;28;20051;-75
2023/10/12 04:24:27;;;;;;;10.48;3.90;;;;;;;-141.23;100.00;62281.09;5019269;28;20071;-76
2023/10/12 04:28:59;;;;;;;7.57;3.70;;;;;;;-141.23;100.00;62281.09;5051018;28;20037;-77
2023/10/12 04:36:35;;;;;;;5.95;3.15;;;;;;;-141.23;100.00;62281.09;5068531;28;20123;-78
2023/10/12 04:47:20;;;;;;;10.27;3.17;;;;;;;-141.23;100.00;62281.09;4974694;28;20768;-80
2023/10/12 04:52:24;;;;;;;9.65;3.45;;;;;;;-141.23;100.00;62281.09;5016130;28;20456;-80
2023/10/12 04:57:26;;;;;;;9.20;3.70;;;;;;;-141.23;100.00;62281.09;5010570;28;20067;-79
2023/10/12 05:10:31;;;;;;;6.15;3.55;;;;;;;-141.23;100.00;62281.09;5028005;28;20052;-78
2023/10/12 05:13:05;;;;;;;9.65;3.85;;;;;;;-141.23;100.00;62281.09;5019034;28;20094;-76
2023/10/12 05:15:42;;;;;;;5.88;3.22;;;;;;;-141.23;100.00;62281.09;5051254;28;20041;-83
2023/10/12 05:18:10;;;;;;;8.02;3.47;;;;;;;-141.23;100.00;62281.09;5035248;28;20049;-83
2023/10/12 05:20:40;;;;;;;9.32;3.70;;;;;;;-141.23;100.00;62281.09;5034682;28;20037;-81
2023/10/12 05:23:07;;;;;;;10.27;3.53;;;;;;;-141.23;100.00;62281.09;5018389;28;20045;-82
2023/10/12 05:28:31;;;;;;;12.10;3.70;;;;;;;-141.23;100.00;62281.09;5037580;28;20140;-84
2023/10/12 05:31:09;;;;;;;12.55;3.50;;;;;;;-141.23;100.00;62281.09;5050549;28;20129;-78
2023/10/12 05:36:10;;;;;;;11.38;4.05;;;;;;;-141.23;100.00;62281.09;5033944;28;20052;-79
2023/10/12 05:38:48;;;;;;;8.02;4.13;;;;;;;-141.23;100.00;62281.09;5033606;28;20140;-77
2023/10/12 05:41:29;;;;;;;8.10;3.70;;;;;;;-141.23;100.00;62281.09;5050144;28;20080;-75
2023/10/12 05:43:57;;;;;;;9.13;4.13;;;;;;;-141.23;100.00;62281.09;5019175;28;20036;-76
2023/10/12 05:46:28;;;;;;;10.50;4.00;;;;;;;-141.23;100.00;62281.09;5017941;28;20502;-77
2023/10/12 05:48:54;;;;;;;;;;;;;;;-141.23;100.00;62281.09;5020554;28;20049;-75
2023/10/12 05:51:21;;;;;;;10.05;4.03;;;;;;;-141.23;100.00;62281.09;5034157;28;20336;-76
2023/10/12 05:53:48;;;;;;;8.95;4.15;;;;;;;-141.23;100.00;62281.09;5018514;28;20056;-76
2023/10/12 05:56:17;;;;;;;7.25;3.95;;;;;;;-141.23;100.00;62281.09;5015750;28;20041;-76
2023/10/12 05:58:43;;;;;;;14.55;4.28;;;;;;;-141.23;100.00;62281.09;5000309;28;20045;-76
2023/10/12 06:01:10;;;;;;;12.10;4.25;;;;;;;-141.23;100.00;62281.09;5033270;28;20152;-75
2023/10/12 06:03:46;;;;;;;8.82;4.20;;;;;;;-141.23;100.00;62281.09;5033219;28;20402;-76
2023/10/12 06:06:13;;;;;;;9.27;4.25;;;;;;;-141.23;100.00;62281.09;5034636;28;20079;-76
2023/10/12 06:08:40;;;;;;;9.48;4.50;;;;;;;-141.23;100.00;62281.09;5017140;28;20041;-78
2023/10/12 06:11:09;;;;;;;10.73;4.82;;;;;;;-141.23;100.00;62281.09;4998521;28;20041;-75
2023/10/12 06:13:43;;;;;;;10.23;4.15;;;;;;;-141.23;100.00;62281.09;5040197;28;20053;-77
2023/10/12 06:16:20;;;;;;;9.25;4.18;;;;;;;-141.23;100.00;62281.09;5008447;28;20045;-78
2023/10/12 06:18:54;;;;;;;9.50;4.05;;;;;;;-141.23;100.00;62281.09;5008964;28;20041;-77
2023/10/12 06:21:20;;;;;;;8.23;4.07;;;;;;;-141.23;100.00;62281.09;5006783;28;20368;-77
2023/10/12 06:23:49;;;;;;;8.43;4.15;;;;;;;-141.23;100.00;62281.09;5009916;28;20087;-78
2023/10/12 06:26:34;;;;;;;6.70;3.80;;;;;;;-141.23;100.00;62281.09;5032307;28;20245;-77
2023/10/12 06:29:01;;;;;;;8.40;4.07;;;;;;;-141.23;100.00;62281.09;5024388;28;20606;-75
2023/10/12 06:31:30;;;;;;;6.53;3.83;;;;;;;-141.23;100.00;62281.09;5003184;28;20126;-78
2023/10/12 06:33:59;;;;;;;7.15;4.57;;;;;;;-141.23;100.00;62281.09;5036478;28;20052;-74
2023/10/12 06:36:37;;;;;;;13.65;4.45;;;;;;;-141.23;100.00;62281.09;5038116;28;20116;-74
2023/10/12 06:46:48;;;;;;;10.00;3.28;;;;;;;-141.23;100.00;62281.09;5064052;28;20036;-76
2023/10/12 06:49:24;;;;;;;8.52;3.53;;;;;;;-141.23;100.00;62281.09;5064511;28;20580;-76
2023/10/12 06:52:00;;;;;;;6.35;3.60;;;;;;;-141.23;100.00;62281.09;5015523;28;20048;-79
2023/10/12 06:54:39;;;;;;;9.02;3.75;;;;;;;-141.23;100.00;62281.09;5012251;28;20117;-76
2023/10/12 07:02:29;;;;;;;8.75;3.67;;;;;;;-141.23;100.00;62281.09;5012128;28;20543;-78
2023/10/12 07:04:55;;;;;;;;;;;;;;;-141.23;100.00;62281.09;5042493;28;20072;-76
2023/10/12 07:07:41;;;;;;;12.13;4.20;;;;;;;-141.23;100.00;62281.09;4993831;28;20263;-78
2023/10/12 07:10:20;;;;;;;6.78;3.90;;;;;;;-141.23;100.00;62281.09;5005014;28;20590;-79
2023/10/12 07:12:49;;;;;;;5.13;3.30;;;;;;;-141.23;100.00;62281.09;4996288;28;20115;-78
2023/10/12 07:15:23;;;;;;;11.05;3.63;;;;;;;-141.23;100.00;62281.09;5011545;28;20044;-80
2023/10/12 07:17:50;;;;;;;6.55;3.55;;;;;;;-141.23;100.00;62281.09;5041253;28;20132;-80
2023/10/12 07:23:14;;;;;;;7.53;3.78;;;;;;;-141.23;100.00;62281.09;5012191;28;20098;-78
2023/10/12 07:25:51;;;;;;;11.10;3.55;;;;;;;-141.23;100.00;62281.09;5042950;28;20033;-75
2023/10/12 07:28:18;;;;;;;7.35;3.85;;;;;;;-141.23;100.00;62281.09;4994013;28;20142;-76
2023/10/12 07:31:13;;;;;;;15.82;4.40;;;;;;;-141.23;100.00;62281.09;4988409;28;20060;-75
2023/10/12 07:33:32;;;;;;;7.93;4.28;;;;;;;-141.23;100.00;62281.09;5002642;28;20045;-75
2023/10/12 07:36:10;;;;;;;7.50;3.53;;;;;;;-141.23;100.00;62281.09;5003955;28;20409;-76
2023/10/12 07:38:37;;;;;;;9.13;3.75;;;;;;;-141.23;100.00;62281.09;5003051;28;20488;-75
2023/10/12 07:41:09;;;;;;;11.52;3.78;;;;;;;-141.23;100.00;62281.09;5021172;28;20061;-75
2023/10/12 07:43:38;;;;;;;9.65;4.10;;;;;;;-141.23;100.00;62281.09;4998642;28;20464;-78
2023/10/12 07:46:14;;;;;;;7.82;3.63;;;;;;;-141.23;100.00;62281.09;4981263;28;20411;-79
2023/10/12 07:48:45;;;;;;;8.13;4.07;;;;;;;-141.23;100.00;62281.09;4982556;28;20053;-79
2023/10/12 07:51:15;;;;;;;12.70;4.35;;;;;;;-141.23;100.00;62281.09;4994315;28;20076;-80
2023/10/12 07:53:42;;;;;;;11.90;3.83;;;;;;;-141.23;100.00;62281.09;4977701;28;20085;-78
2023/10/12 07:56:15;;;;;;;10.57;3.67;;;;;;;-141.23;100.00;62281.09;4973623;28;20116;-79
2023/10/12 07:58:51;;;;;;;8.07;3.60;;;;;;;-141.23;100.00;62281.09;4974863;28;20392;-79
2023/10/12 08:01:26;;;;;;;10.60;4.30;;;;;;;13.90;76.18;97906.47;4947879;28;20124;-77
2023/10/12 08:04:00;;;;;;;10.75;4.60;;;;;;;14.38;76.27;97896.72;4978724;28;20487;-78
2023/10/12 08:09:05;;;;;;;10.23;4.18;;;;;;;14.06;75.53;97897.88;4953803;28;20046;-77
2023/10/12 08:11:34;;;;;;;7.30;3.47;;;;;;;13.95;75.30;97879.94;4954090;28;20509;-76
2023/10/12 08:14:39;;;;;;;6.95;3.95;;;;;;;14.21;74.97;97879.63;4977808;28;20053;-77
2023/10/12 08:19:56;;;;;;;11.85;4.30;;;;;;;14.26;74.67;97865.66;4953557;28;20114;-79
2023/10/12 08:22:29;;;;;;;10.00;4.40;;;;;;;14.40;75.10;97878.63;4928670;29;20070;-78
2023/10/12 08:25:04;;;;;;;11.02;4.07;;;;;;;14.29;74.93;97865.19;4924140;29;20567;-78
2023/10/12 08:27:39;;;;;;;10.35;4.35;;;;;;;14.31;74.85;97922.69;4933260;28;20065;-77
2023/10/12 08:31:15;;;;;;;9.77;4.40;;;;;;;14.21;75.51;97846.78;4970289;28;20081;-78
2023/10/12 08:33:14;;;;;;;8.63;3.88;;;;;;;14.29;75.31;97831.31;4933342;28;20050;-78
2023/10/12 08:38:55;;;;;;;14.98;4.75;;;;;;;14.49;75.15;97946.72;5000237;28;20053;-74
2023/10/12 08:44:04;;;;;;;9.23;4.50;;;;;;;14.36;74.74;97817.88;4894507;29;20075;-76
2023/10/12 08:52:18;;;;;;;13.07;5.35;;;;;;;14.63;74.81;97843.19;4960100;28;20046;-75
2023/10/12 08:54:53;;;;;;;15.98;5.03;;;;;;;14.71;74.98;97832.19;4992273;28;20053;-75
2023/10/12 08:57:35;;;;;;;11.80;4.60;;;;;;;14.65;74.82;97785.78;4992072;28;20140;-78
2023/10/12 09:00:39;;;;;;;16.65;5.35;;;;;;;14.77;74.60;97813.38;4988802;28;20057;-83
2023/10/12 09:05:51;;;;;;;8.20;4.10;;;;;;;14.88;73.62;97780.50;4993031;28;20176;-78
2023/10/12 09:13:19;;;;;;;9.65;4.10;;;;;;;15.15;72.82;97735.44;5033768;28;20124;-74
2023/10/12 09:15:48;;;;;;;12.13;4.68;;;;;;;14.82;72.73;97773.41;5005750;28;20499;-73
2023/10/12 09:18:16;;;;;;;9.82;4.68;;;;;;;14.97;73.00;97789.00;5027321;28;20045;-72
2023/10/12 09:21:17;;;;;;;11.90;4.78;;;;;;;15.37;72.10;97752.53;5033109;28;20390;-74
2023/10/12 09:23:49;;;;;;;;;;;;;;;15.45;71.45;97770.09;5032763;28;20041;-74
2023/10/12 09:26:19;;;;;;;9.75;4.30;;;;;;;15.19;71.94;97784.75;5048468;28;19920;-73
2023/10/12 09:31:14;;;;;;;8.00;4.35;;;;;;;15.24;72.17;97780.31;4996184;28;20152;-76
2023/10/12 09:33:53;;;;;;;13.43;4.88;;;;;;;15.34;71.91;97761.00;5003214;28;20049;-75
2023/10/12 09:36:23;;;;;;;13.35;4.55;;;;;;;15.47;72.33;97725.22;4985856;28;20095;-76
2023/10/12 09:38:50;;;;;;;13.55;4.60;;;;;;;15.43;71.55;97721.38;4995701;28;20076;-76
2023/10/12 09:41:17;;;;;;;10.25;4.63;;;;;;;15.57;71.21;97800.34;4953698;28;20056;-75
2023/10/12 09:43:46;;;;;;;12.35;4.20;;;;;;;15.78;70.41;97740.84;4976479;28;20053;-75
2023/10/12 09:46:17;;;;;;;10.20;4.28;;;;;;;15.68;70.77;97721.91;4983721;28;20053;-74
2023/10/12 09:48:44;;;;;;;11.45;4.65;;;;;;;15.54;71.17;97733.91;4976432;28;20074;-75
2023/10/12 09:51:16;;;;;;;9.20;4.80;;;;;;;15.75;70.71;97749.34;4972937;28;20048;-74
2023/10/12 09:53:57;;;;;;;9.88;4.07;;;;;;;15.91;70.39;97738.72;4977304;28;20523;-78
2023/10/12 09:56:46;;;;;;;9.88;4.25;;;;;;;15.74;70.05;97723.63;4992952;28;20419;-77
2023/10/12 09:59:18;;;;;;;8.70;4.60;;;;;;;15.75;70.20;97719.91;4980313;28;20084;-74
2023/10/12 10:06:55;;;;;;;9.27;4.25;;;;;;;15.76;70.09;97745.63;5024585;28;20060;-76
2023/10/12 10:09:37;;;;;;;12.43;4.40;;;;;;;15.82;69.45;97736.66;5015788;28;20048;-78
2023/10/12 10:12:06;;;;;;;10.43;4.13;;;;;;;15.88;69.42;97727.66;5004225;28;20045;-76
2023/10/12 10:14:34;;;;;;;11.23;4.07;;;;;;;15.91;69.44;97738.72;5020080;28;20045;-75
2023/10/12 10:17:01;;;;;;;11.18;4.18;;;;;;;15.78;69.22;97747.00;5036518;28;20094;-76
2023/10/12 10:19:29;;;;;;;12.73;4.65;;;;;;;15.63;69.61;97776.13;5053157;28;20130;-78
2023/10/12 10:22:11;;;;;;;12.10;4.88;;;;;;;15.65;69.88;97787.44;5052509;28;20052;-75
2023/10/12 10:24:46;;;;;;;8.35;4.20;;;;;;;15.79;70.17;97772.72;5038380;28;20483;-78
2023/10/12 10:27:16;;;;;;;12.13;4.60;;;;;;;15.88;69.79;97774.00;5068966;28;20364;-76
2023/10/12 10:29:53;;;;;;;12.48;4.10;;;;;;;15.75;69.81;97771.56;5052710;28;20127;-78
2023/10/12 10:32:29;;;;;;;10.63;4.35;;;;;;;16.05;69.86;97777.53;5052944;28;20052;-77
2023/10/12 10:35:04;;;;;;;7.70;3.97;;;;;;;16.19;69.13;97781.56;5036197;28;20471;-74
2023/10/12 10:37:47;;;;;;;13.57;4.70;;;;;;;16.10;69.59;97793.72;5020768;28;20037;-75
2023/10/12 10:40:20;;;;;;;10.95;4.22;;;;;;;16.23;71.57;97793.44;5004121;28;20447;-75
2023/10/12 10:43:04;;;;;;;12.88;4.78;;;;;;;15.56;72.43;97804.06;5035939;28;20407;-76
2023/10/12 10:45:34;;;;;;;8.07;4.00;;;;;;;15.68;72.87;97786.97;5039057;28;20044;-75
2023/10/12 10:48:03;;;;;;;13.48;4.80;;;;;;;15.84;72.53;97772.81;5037579;28;20313;-74
2023/10/12 10:50:33;;;;;;;9.57;4.65;;;;;;;15.88;73.01;97800.78;5037069;28;20053;-75
2023/10/12 10:53:00;;;;;;;13.48;4.30;;;;;;;15.66;74.09;97814.97;5036816;28;20341;-75
2023/10/12 10:55:31;;;;;;;11.10;4.63;;;;;;;16.04;74.57;97817.94;5052152;28;20079;-75
2023/10/12 10:58:00;;;;;;;14.95;4.22;;;;;;;16.01;74.86;97799.66;5051793;28;20118;-75
2023/10/12 11:00:45;;;;;;;13.93;4.55;;;;;;;16.19;73.35;97807.56;5051861;28;20068;-75
2023/10/12 11:03:17;;;;;;;10.40;4.22;;;;;;;16.29;74.14;97813.94;5034271;28;20057;-75
2023/10/12 11:05:46;;;;;;;10.10;4.00;;;;;;;16.10;73.90;97804.41;5015194;28;20053;-73
2023/10/12 11:08:27;;;;;;;12.03;4.30;;;;;;;16.31;73.73;97795.72;4998271;28;20049;-73
2023/10/12 11:13:38;;;;;;;7.60;4.80;;;;;;;16.15;74.44;97783.09;5030657;28;20057;-77
2023/10/12 11:16:51;;;;;;;11.75;4.65;;;;;;;15.95;74.95;97806.78;5013371;28;20052;-74
2023/10/12 11:18:52;;;;;;;11.68;4.50;;;;;;;16.17;74.35;97796.25;4993649;28;20878;-74
2023/10/12 11:21:18;;;;;;;8.98;4.18;;;;;;;16.18;73.73;97821.97;5013538;28;20068;-75
2023/10/12 11:23:44;;;;;;;12.40;5.10;;;;;;;15.90;74.36;97804.00;4998079;28;20115;-74
2023/10/12 11:26:21;;;;;;;11.68;4.55;;;;;;;16.24;74.70;97808.47;4997707;28;20158;-75
2023/10/12 11:29:01;;;;;;;17.20;4.60;;;;;;;16.44;73.67;97832.16;5013992;28;20050;-74
2023/10/12 11:31:30;;;;;;;12.60;5.28;;;;;;;16.42;73.36;97810.94;5013525;28;20448;-74
2023/10/12 11:33:58;;;;;;;14.35;4.65;;;;;;;16.13;74.35;97816.53;4997207;28;20136;-75
2023/10/12 11:36:25;;;;;;;10.85;4.47;;;;;;;16.42;74.26;97829.69;5018706;28;20164;-74
2023/10/12 11:39:10;;;;;;;9.23;4.35;;;;;;;16.24;75.44;97843.28;5031427;28;20129;-75
2023/10/12 11:41:36;;;;;;;13.43;4.45;;;;;;;16.38;74.99;97833.91;5006897;28;20053;-74
2023/10/12 11:44:05;;;;;;;13.55;5.95;;;;;;;16.17;74.93;97836.44;5023136;28;20041;-74
2023/10/12 11:46:43;;;;;;;12.07;4.97;;;;;;;16.48;76.54;97825.31;5033446;28;20052;-75
2023/10/12 11:49:10;;;;;;;10.57;4.32;;;;;;;16.41;77.02;97833.44;5032461;28;20048;-75
2023/10/12 11:51:57;;;;;;;12.32;4.80;;;;;;;16.15;79.28;97871.50;5019227;28;20049;-74
2023/10/12 11:54:32;;;;;;;13.77;4.43;;;;;;;16.19;80.42;97866.47;5000877;28;20037;-74
2023/10/12 11:56:58;;;;;;;10.93;4.97;;;;;;;16.14;82.23;97867.19;5016118;28;20045;-74
2023/10/12 11:59:31;;;;;;;9.13;4.90;;;;;;;15.85;84.35;97851.28;5014436;28;20452;-73
2023/10/12 12:02:06;;;;;;;22.05;5.15;;;;;;;15.91;87.42;97861.88;4999059;28;20067;-81
2023/10/12 12:04:40;;;;;;;12.38;5.47;;;;;;;15.54;90.64;97848.97;4990284;28;20145;-78
2023/10/12 12:07:10;;;;;;;10.20;5.07;;;;;;;15.60;91.36;97840.00;4998204;28;20104;-81
2023/10/12 12:09:40;;;;;;;15.35;6.10;;;;;;;15.51;92.29;97850.25;4967815;28;20058;-79
2023/10/12 12:12:12;;;;;;;12.05;5.35;;;;;;;15.83;92.11;97829.28;4984132;28;20050;-78
2023/10/12 12:14:39;;;;;;;16.95;5.93;;;;;;;16.05;90.91;97819.59;4983677;28;20035;-79
2023/10/12 12:17:05;;;;;;;11.82;5.57;;;;;;;15.96;89.88;97834.41;4975980;28;20212;-80
2023/10/12 12:19:33;;;;;;;13.45;5.20;;;;;;;15.95;89.27;97797.94;4990698;28;20133;-79
2023/10/12 12:22:00;;;;;;;13.55;5.38;;;;;;;16.18;88.77;97798.69;5006558;28;20516;-80
2023/10/12 12:24:29;;;;;;;10.55;4.97;;;;;;;15.96;88.42;97835.19;4958391;28;20050;-82
2023/10/12 12:26:55;;;;;;;11.65;5.30;;;;;;;16.17;88.39;97850.66;5005951;28;20058;-79
2023/10/12 12:29:26;;;;;;;14.05;5.40;;;;;;;16.20;88.53;97826.06;4973912;28;20069;-80
2023/10/12 12:31:53;;;;;;;15.02;5.78;;;;;;;16.18;90.00;97801.38;4973355;28;20089;-80
2023/10/12 12:35:02;;;;;;;9.77;5.28;;;;;;;16.21;89.48;97808.09;5005625;28;20516;-79
2023/10/12 12:37:08;;;;;;;13.57;5.70;;;;;;;15.84;90.40;97775.50;4972267;28;20061;-80
2023/10/12 12:39:34;;;;;;;10.88;5.10;;;;;;;15.97;91.21;97737.78;4977495;28;20149;-80
2023/10/12 12:42:11;;;;;;;13.38;5.93;;;;;;;16.08;90.86;97730.75;4980928;28;20057;-79
2023/10/12 12:44:37;;;;;;;12.20;5.30;;;;;;;15.85;91.37;97728.16;5015093;28;20075;-79
2023/10/12 12:47:06;;;;;;;10.95;5.93;;;;;;;15.85;91.03;97755.72;5014070;28;20084;-79
2023/10/12 12:49:33;;;;;;;10.02;5.07;;;;;;;15.95;91.48;97749.75;5014723;28;20203;-80
2023/10/12 12:51:59;;;;;;;9.02;5.22;;;;;;;15.67;92.55;97768.47;5013466;28;20106;-80
2023/10/12 12:54:25;;;;;;;12.43;5.30;;;;;;;15.79;91.76;97713.03;5013488;28;20050;-81
2023/10/12 12:56:53;;;;;;;10.73;4.75;;;;;;;15.73;91.96;97740.75;4997496;28;20042;-81
2023/10/12 12:59:24;;;;;;;9.68;5.10;;;;;;;15.82;92.29;97745.47;4997558;28;20041;-80
2023/10/12 13:01:50;;;;;;;12.25;5.68;;;;;;;15.60;92.96;97794.50;5013583;28;20137;-80
2023/10/12 13:04:18;;;;;;;10.35;4.80;;;;;;;15.72;93.70;97739.94;4997616;28;20049;-80
2023/10/12 13:06:45;;;;;;;9.55;4.70;;;;;;;15.84;93.36;97738.03;5014980;28;20037;-81
2023/10/12 13:09:28;;;;;;;8.52;4.95;;;;;;;15.79;93.51;97753.97;4997661;28;20113;-81
2023/10/12 13:11:56;;;;;;;12.90;5.00;;;;;;;15.87;93.78;97740.22;5001456;28;20072;-80
2023/10/12 13:14:22;;;;;;;17.92;5.07;;;;;;;15.91;93.35;97770.84;5000474;28;20041;-79
2023/10/12 13:16:49;;;;;;;13.77;4.93;;;;;;;15.85;93.31;97792.38;5016777;28;20453;-81
2023/10/12 13:19:17;;;;;;;9.90;4.72;;;;;;;15.97;93.53;97764.53;5000061;28;20041;-80
2023/10/12 13:21:47;;;;;;;11.25;5.40;;;;;;;16.15;93.60;97776.94;4999371;28;20038;-80
2023/10/12 13:24:14;;;;;;;8.60;4.50;;;;;;;15.85;94.04;97800.41;5014534;28;20052;-80
2023/10/12 13:26:43;;;;;;;8.30;4.65;;;;;;;15.97;93.33;97766.41;5013363;28;20049;-79
2023/10/12 13:29:13;;;;;;;8.15;4.60;;;;;;;16.21;93.75;97763.41;5014351;28;20045;-80
2023/10/12 13:31:40;;;;;;;8.77;4.60;;;;;;;15.93;93.10;97776.75;4981399;28;20065;-80
2023/10/12 13:34:06;;;;;;;7.43;4.50;;;;;;;16.03;93.66;97768.94;4997574;28;20057;-81
2023/10/12 13:36:36;;;;;;;8.75;4.50;;;;;;;16.03;94.46;97752.06;4997260;28;20045;-80
2023/10/12 13:39:09;;;;;;;11.88;4.43;;;;;;;15.95;94.07;97777.34;5014261;28;20048;-80
2023/10/12 13:41:35;;;;;;;7.53;4.30;;;;;;;15.89;94.56;97772.13;4998719;28;20037;-80
2023/10/12 13:44:05;;;;;;;8.18;4.65;;;;;;;15.82;94.96;97750.03;4997870;28;20383;-80